sensor_id;sensor_type;location;lat;lon;timestamp;P1;durP1;ratioP1;P2;durP2;ratioP2
14592;SDS011;7383;52.354;9.756;2022-12-29T00:02:09;1.27;;;1.27;;
14592;SDS011;7383;52.354;9.756;2022-12-29T00:04:36;1.30;;;1.20;;
14592;SDS011;7383;52.354;9.756;2022-12-29T00:07:02;1.50;;;1.40;;
14592;SDS011;7383;52.354;9.756;2022-12-29T00:09:29;1.23;;;1.20;;
14592;SDS011;7383;52.354;9.756;2022-12-29T00:11:56;1.45;;;1.35;;
14592;SDS011;7383;52.354;9.756;2022-12-29T00:14:24;1.55;;;1.42;;
14592;SDS011;7383;52.354;9.756;2022-12-29T00:17:09;1.13;;;1.10;;
14592;SDS011;7383;52.354;9.756;2022-12-29T00:19:35;1.17;;;1.17;;
14592;SDS011;7383;52.354;9.756;2022-12-29T00:22:19;1.13;;;1.10;;
14592;SDS011;7383;52.354;9.756;2022-12-29T00:25:04;1.40;;;1.30;;
14592;SDS011;7383;52.354;9.756;2022-12-29T00:27:49;1.50;;;1.40;;
14592;SDS011;7383;52.354;9.756;2022-12-29T00:30:34;1.20;;;1.13;;
14592;SDS011;7383;52.354;9.756;2022-12-29T00:33:20;1.05;;;1.05;;
14592;SDS011;7383;52.354;9.756;2022-12-29T00:36:06;1.20;;;1.20;;
14592;SDS011;7383;52.354;9.756;2022-12-29T00:38:38;1.00;;;1.00;;
14592;SDS011;7383;52.354;9.756;2022-12-29T00:41:27;1.27;;;1.27;;
14592;SDS011;7383;52.354;9.756;2022-12-29T00:44:12;1.40;;;1.30;;
14592;SDS011;7383;52.354;9.756;2022-12-29T00:46:41;1.20;;;1.20;;
14592;SDS011;7383;52.354;9.756;2022-12-29T00:49:09;1.00;;;1.00;;
14592;SDS011;7383;52.354;9.756;2022-12-29T00:51:54;1.98;;;1.48;;
14592;SDS011;7383;52.354;9.756;2022-12-29T00:54:21;1.20;;;1.20;;
14592;SDS011;7383;52.354;9.756;2022-12-29T00:56:50;1.25;;;1.17;;
14592;SDS011;7383;52.354;9.756;2022-12-29T00:59:17;1.38;;;1.27;;
14592;SDS011;7383;52.354;9.756;2022-12-29T01:01:46;1.30;;;1.20;;
14592;SDS011;7383;52.354;9.756;2022-12-29T01:04:13;1.40;;;1.30;;
14592;SDS011;7383;52.354;9.756;2022-12-29T01:06:40;1.27;;;1.25;;
14592;SDS011;7383;52.354;9.756;2022-12-29T01:09:07;1.30;;;1.30;;
14592;SDS011;7383;52.354;9.756;2022-12-29T01:11:51;1.42;;;1.30;;
14592;SDS011;7383;52.354;9.756;2022-12-29T01:14:18;1.00;;;1.00;;
14592;SDS011;7383;52.354;9.756;2022-12-29T01:16:48;1.30;;;1.20;;
14592;SDS011;7383;52.354;9.756;2022-12-29T01:19:15;1.35;;;1.27;;
14592;SDS011;7383;52.354;9.756;2022-12-29T01:21:43;1.30;;;1.30;;
14592;SDS011;7383;52.354;9.756;2022-12-29T01:24:09;1.27;;;1.25;;
14592;SDS011;7383;52.354;9.756;2022-12-29T01:26:36;1.30;;;1.20;;
14592;SDS011;7383;52.354;9.756;2022-12-29T01:29:03;1.10;;;1.10;;
14592;SDS011;7383;52.354;9.756;2022-12-29T01:31:29;1.45;;;1.25;;
14592;SDS011;7383;52.354;9.756;2022-12-29T01:33:57;1.30;;;1.20;;
14592;SDS011;7383;52.354;9.756;2022-12-29T01:36:24;1.10;;;1.10;;
14592;SDS011;7383;52.354;9.756;2022-12-29T01:38:51;1.25;;;1.20;;
14592;SDS011;7383;52.354;9.756;2022-12-29T01:41:17;1.13;;;1.13;;
14592;SDS011;7383;52.354;9.756;2022-12-29T01:43:45;1.38;;;1.30;;
14592;SDS011;7383;52.354;9.756;2022-12-29T01:46:19;1.40;;;1.30;;
14592;SDS011;7383;52.354;9.756;2022-12-29T01:48:50;1.20;;;1.10;;
14592;SDS011;7383;52.354;9.756;2022-12-29T01:51:20;1.38;;;1.30;;
14592;SDS011;7383;52.354;9.756;2022-12-29T01:53:49;1.65;;;0.98;;
14592;SDS011;7383;52.354;9.756;2022-12-29T01:56:18;1.48;;;1.30;;
14592;SDS011;7383;52.354;9.756;2022-12-29T01:58:47;1.33;;;1.27;;
14592;SDS011;7383;52.354;9.756;2022-12-29T02:01:16;1.63;;;1.38;;
14592;SDS011;7383;52.354;9.756;2022-12-29T02:03:45;1.27;;;1.27;;
14592;SDS011;7383;52.354;9.756;2022-12-29T02:06:14;1.25;;;1.25;;
14592;SDS011;7383;52.354;9.756;2022-12-29T02:08:45;1.50;;;1.40;;
14592;SDS011;7383;52.354;9.756;2022-12-29T02:11:12;1.40;;;1.30;;
14592;SDS011;7383;52.354;9.756;2022-12-29T02:13:39;1.77;;;1.40;;
14592;SDS011;7383;52.354;9.756;2022-12-29T02:16:09;1.63;;;1.52;;
14592;SDS011;7383;52.354;9.756;2022-12-29T02:18:47;1.17;;;1.17;;
14592;SDS011;7383;52.354;9.756;2022-12-29T02:21:44;1.50;;;1.42;;
14592;SDS011;7383;52.354;9.756;2022-12-29T02:27:29;1.30;;;1.20;;
14592;SDS011;7383;52.354;9.756;2022-12-29T02:30:12;1.60;;;1.50;;
14592;SDS011;7383;52.354;9.756;2022-12-29T02:32:51;1.38;;;1.27;;
14592;SDS011;7383;52.354;9.756;2022-12-29T02:35:28;1.10;;;1.10;;
14592;SDS011;7383;52.354;9.756;2022-12-29T02:37:59;1.40;;;1.30;;
14592;SDS011;7383;52.354;9.756;2022-12-29T02:40:37;0.90;;;0.90;;
14592;SDS011;7383;52.354;9.756;2022-12-29T02:43:12;1.25;;;1.20;;
14592;SDS011;7383;52.354;9.756;2022-12-29T02:45:47;1.23;;;1.20;;
14592;SDS011;7383;52.354;9.756;2022-12-29T02:48:23;1.00;;;1.00;;
14592;SDS011;7383;52.354;9.756;2022-12-29T02:51:00;1.00;;;1.00;;
14592;SDS011;7383;52.354;9.756;2022-12-29T02:53:29;1.00;;;1.00;;
14592;SDS011;7383;52.354;9.756;2022-12-29T02:56:16;1.00;;;1.00;;
14592;SDS011;7383;52.354;9.756;2022-12-29T02:58:42;0.77;;;0.77;;
14592;SDS011;7383;52.354;9.756;2022-12-29T03:01:22;1.02;;;1.02;;
14592;SDS011;7383;52.354;9.756;2022-12-29T03:04:01;0.90;;;0.90;;
14592;SDS011;7383;52.354;9.756;2022-12-29T03:06:40;0.80;;;0.80;;
14592;SDS011;7383;52.354;9.756;2022-12-29T03:09:19;1.00;;;1.00;;
14592;SDS011;7383;52.354;9.756;2022-12-29T03:11:53;1.00;;;0.90;;
14592;SDS011;7383;52.354;9.756;2022-12-29T03:14:39;0.80;;;0.80;;
14592;SDS011;7383;52.354;9.756;2022-12-29T03:17:36;1.52;;;0.90;;
14592;SDS011;7383;52.354;9.756;2022-12-29T03:20:11;0.80;;;0.80;;
14592;SDS011;7383;52.354;9.756;2022-12-29T03:22:44;0.88;;;0.88;;
14592;SDS011;7383;52.354;9.756;2022-12-29T03:25:15;0.80;;;0.80;;
14592;SDS011;7383;52.354;9.756;2022-12-29T03:27:48;0.98;;;0.98;;
14592;SDS011;7383;52.354;9.756;2022-12-29T03:30:19;0.70;;;0.70;;
14592;SDS011;7383;52.354;9.756;2022-12-29T03:32:46;1.20;;;1.20;;
14592;SDS011;7383;52.354;9.756;2022-12-29T03:35:19;0.80;;;0.80;;
14592;SDS011;7383;52.354;9.756;2022-12-29T03:37:50;1.00;;;0.88;;
14592;SDS011;7383;52.354;9.756;2022-12-29T03:40:22;0.80;;;0.80;;
14592;SDS011;7383;52.354;9.756;2022-12-29T03:42:51;0.75;;;0.75;;
14592;SDS011;7383;52.354;9.756;2022-12-29T03:45:19;1.25;;;1.17;;
14592;SDS011;7383;52.354;9.756;2022-12-29T03:47:46;0.85;;;0.82;;
14592;SDS011;7383;52.354;9.756;2022-12-29T03:50:13;1.00;;;0.90;;
14592;SDS011;7383;52.354;9.756;2022-12-29T03:52:40;0.93;;;0.93;;
14592;SDS011;7383;52.354;9.756;2022-12-29T03:55:07;0.93;;;0.93;;
14592;SDS011;7383;52.354;9.756;2022-12-29T03:57:34;0.88;;;0.88;;
14592;SDS011;7383;52.354;9.756;2022-12-29T04:00:01;0.70;;;0.70;;
14592;SDS011;7383;52.354;9.756;2022-12-29T04:02:27;1.20;;;1.00;;
14592;SDS011;7383;52.354;9.756;2022-12-29T04:04:53;0.80;;;0.80;;
14592;SDS011;7383;52.354;9.756;2022-12-29T04:07:20;0.90;;;0.90;;
14592;SDS011;7383;52.354;9.756;2022-12-29T04:09:48;1.58;;;0.80;;
14592;SDS011;7383;52.354;9.756;2022-12-29T04:12:14;1.20;;;0.60;;
14592;SDS011;7383;52.354;9.756;2022-12-29T04:14:40;0.70;;;0.70;;
14592;SDS011;7383;52.354;9.756;2022-12-29T04:17:07;0.82;;;0.63;;
14592;SDS011;7383;52.354;9.756;2022-12-29T04:19:33;0.55;;;0.55;;
14592;SDS011;7383;52.354;9.756;2022-12-29T04:22:00;0.50;;;0.50;;
14592;SDS011;7383;52.354;9.756;2022-12-29T04:24:25;0.60;;;0.60;;
14592;SDS011;7383;52.354;9.756;2022-12-29T04:26:53;0.68;;;0.68;;
14592;SDS011;7383;52.354;9.756;2022-12-29T04:29:19;0.60;;;0.60;;
14592;SDS011;7383;52.354;9.756;2022-12-29T04:31:46;0.70;;;0.70;;
14592;SDS011;7383;52.354;9.756;2022-12-29T04:34:13;0.65;;;0.65;;
14592;SDS011;7383;52.354;9.756;2022-12-29T04:36:39;0.70;;;0.70;;
14592;SDS011;7383;52.354;9.756;2022-12-29T04:39:06;0.57;;;0.57;;
14592;SDS011;7383;52.354;9.756;2022-12-29T04:41:33;0.50;;;0.50;;
14592;SDS011;7383;52.354;9.756;2022-12-29T04:44:00;0.50;;;0.50;;
14592;SDS011;7383;52.354;9.756;2022-12-29T04:46:27;0.82;;;0.50;;
14592;SDS011;7383;52.354;9.756;2022-12-29T04:48:53;0.40;;;0.40;;
14592;SDS011;7383;52.354;9.756;2022-12-29T04:51:20;0.75;;;0.75;;
14592;SDS011;7383;52.354;9.756;2022-12-29T04:53:47;0.63;;;0.63;;
14592;SDS011;7383;52.354;9.756;2022-12-29T04:56:13;0.60;;;0.60;;
14592;SDS011;7383;52.354;9.756;2022-12-29T04:58:40;0.52;;;0.52;;
14592;SDS011;7383;52.354;9.756;2022-12-29T05:01:08;1.13;;;0.60;;
14592;SDS011;7383;52.354;9.756;2022-12-29T05:03:34;0.50;;;0.50;;
14592;SDS011;7383;52.354;9.756;2022-12-29T05:06:00;0.60;;;0.60;;
14592;SDS011;7383;52.354;9.756;2022-12-29T05:08:28;0.70;;;0.70;;
14592;SDS011;7383;52.354;9.756;2022-12-29T05:10:54;0.93;;;0.65;;
14592;SDS011;7383;52.354;9.756;2022-12-29T05:13:21;1.05;;;0.65;;
14592;SDS011;7383;52.354;9.756;2022-12-29T05:15:47;0.40;;;0.40;;
14592;SDS011;7383;52.354;9.756;2022-12-29T05:18:17;0.40;;;0.40;;
14592;SDS011;7383;52.354;9.756;2022-12-29T05:20:44;1.92;;;0.45;;
14592;SDS011;7383;52.354;9.756;2022-12-29T05:23:11;0.68;;;0.60;;
14592;SDS011;7383;52.354;9.756;2022-12-29T05:25:38;0.43;;;0.43;;
14592;SDS011;7383;52.354;9.756;2022-12-29T05:28:05;0.70;;;0.70;;
14592;SDS011;7383;52.354;9.756;2022-12-29T05:30:31;0.40;;;0.40;;
14592;SDS011;7383;52.354;9.756;2022-12-29T05:32:58;0.47;;;0.47;;
14592;SDS011;7383;52.354;9.756;2022-12-29T05:35:26;0.40;;;0.35;;
14592;SDS011;7383;52.354;9.756;2022-12-29T05:37:52;1.00;;;0.50;;
14592;SDS011;7383;52.354;9.756;2022-12-29T05:40:25;0.70;;;0.57;;
14592;SDS011;7383;52.354;9.756;2022-12-29T05:42:57;0.50;;;0.50;;
14592;SDS011;7383;52.354;9.756;2022-12-29T05:45:24;0.47;;;0.47;;
14592;SDS011;7383;52.354;9.756;2022-12-29T05:47:50;0.70;;;0.70;;
14592;SDS011;7383;52.354;9.756;2022-12-29T05:50:17;0.60;;;0.60;;
14592;SDS011;7383;52.354;9.756;2022-12-29T05:52:45;0.40;;;0.40;;
14592;SDS011;7383;52.354;9.756;2022-12-29T05:55:12;0.38;;;0.38;;
14592;SDS011;7383;52.354;9.756;2022-12-29T05:57:38;0.85;;;0.60;;
14592;SDS011;7383;52.354;9.756;2022-12-29T06:00:05;0.95;;;0.70;;
14592;SDS011;7383;52.354;9.756;2022-12-29T06:02:33;0.63;;;0.63;;
14592;SDS011;7383;52.354;9.756;2022-12-29T06:04:59;0.38;;;0.38;;
14592;SDS011;7383;52.354;9.756;2022-12-29T06:07:26;1.00;;;0.60;;
14592;SDS011;7383;52.354;9.756;2022-12-29T06:09:54;0.60;;;0.60;;
14592;SDS011;7383;52.354;9.756;2022-12-29T06:12:20;0.40;;;0.40;;
14592;SDS011;7383;52.354;9.756;2022-12-29T06:14:46;0.55;;;0.50;;
14592;SDS011;7383;52.354;9.756;2022-12-29T06:17:13;0.50;;;0.50;;
14592;SDS011;7383;52.354;9.756;2022-12-29T06:19:39;0.63;;;0.63;;
14592;SDS011;7383;52.354;9.756;2022-12-29T06:22:05;0.60;;;0.60;;
14592;SDS011;7383;52.354;9.756;2022-12-29T06:24:32;0.55;;;0.55;;
14592;SDS011;7383;52.354;9.756;2022-12-29T06:27:00;0.70;;;0.70;;
14592;SDS011;7383;52.354;9.756;2022-12-29T06:29:26;0.68;;;0.50;;
14592;SDS011;7383;52.354;9.756;2022-12-29T06:31:53;0.57;;;0.57;;
14592;SDS011;7383;52.354;9.756;2022-12-29T06:34:22;0.60;;;0.57;;
14592;SDS011;7383;52.354;9.756;2022-12-29T06:36:49;0.60;;;0.60;;
14592;SDS011;7383;52.354;9.756;2022-12-29T06:39:15;0.75;;;0.75;;
14592;SDS011;7383;52.354;9.756;2022-12-29T06:41:41;0.45;;;0.45;;
14592;SDS011;7383;52.354;9.756;2022-12-29T06:44:09;0.30;;;0.30;;
14592;SDS011;7383;52.354;9.756;2022-12-29T06:46:36;0.50;;;0.50;;
14592;SDS011;7383;52.354;9.756;2022-12-29T06:49:02;0.60;;;0.60;;
14592;SDS011;7383;52.354;9.756;2022-12-29T06:51:29;0.60;;;0.60;;
14592;SDS011;7383;52.354;9.756;2022-12-29T06:53:55;0.45;;;0.45;;
14592;SDS011;7383;52.354;9.756;2022-12-29T06:56:21;0.40;;;0.40;;
14592;SDS011;7383;52.354;9.756;2022-12-29T06:58:48;0.50;;;0.50;;
14592;SDS011;7383;52.354;9.756;2022-12-29T07:01:16;0.38;;;0.38;;
14592;SDS011;7383;52.354;9.756;2022-12-29T07:03:42;0.40;;;0.40;;
14592;SDS011;7383;52.354;9.756;2022-12-29T07:06:09;0.60;;;0.40;;
14592;SDS011;7383;52.354;9.756;2022-12-29T07:08:35;0.40;;;0.40;;
14592;SDS011;7383;52.354;9.756;2022-12-29T07:11:02;0.63;;;0.30;;
14592;SDS011;7383;52.354;9.756;2022-12-29T07:13:28;2.40;;;0.65;;
14592;SDS011;7383;52.354;9.756;2022-12-29T07:15:55;0.77;;;0.65;;
14592;SDS011;7383;52.354;9.756;2022-12-29T07:18:22;0.25;;;0.25;;
14592;SDS011;7383;52.354;9.756;2022-12-29T07:20:49;0.30;;;0.30;;
14592;SDS011;7383;52.354;9.756;2022-12-29T07:23:15;0.30;;;0.30;;
14592;SDS011;7383;52.354;9.756;2022-12-29T07:25:42;0.40;;;0.40;;
14592;SDS011;7383;52.354;9.756;2022-12-29T07:28:11;0.40;;;0.40;;
14592;SDS011;7383;52.354;9.756;2022-12-29T07:30:38;0.63;;;0.32;;
14592;SDS011;7383;52.354;9.756;2022-12-29T07:33:05;1.65;;;1.55;;
14592;SDS011;7383;52.354;9.756;2022-12-29T07:35:34;0.70;;;0.70;;
14592;SDS011;7383;52.354;9.756;2022-12-29T07:38:00;1.08;;;0.50;;
14592;SDS011;7383;52.354;9.756;2022-12-29T07:40:27;1.65;;;0.90;;
14592;SDS011;7383;52.354;9.756;2022-12-29T07:42:53;0.60;;;0.60;;
14592;SDS011;7383;52.354;9.756;2022-12-29T07:45:20;1.15;;;0.60;;
14592;SDS011;7383;52.354;9.756;2022-12-29T07:47:47;0.50;;;0.50;;
14592;SDS011;7383;52.354;9.756;2022-12-29T07:50:14;0.63;;;0.63;;
14592;SDS011;7383;52.354;9.756;2022-12-29T07:52:41;0.57;;;0.57;;
14592;SDS011;7383;52.354;9.756;2022-12-29T07:55:08;0.32;;;0.20;;
14592;SDS011;7383;52.354;9.756;2022-12-29T07:57:34;0.20;;;0.20;;
14592;SDS011;7383;52.354;9.756;2022-12-29T08:00:02;0.35;;;0.35;;
14592;SDS011;7383;52.354;9.756;2022-12-29T08:02:29;0.47;;;0.40;;
14592;SDS011;7383;52.354;9.756;2022-12-29T08:04:55;0.40;;;0.40;;
14592;SDS011;7383;52.354;9.756;2022-12-29T08:07:22;0.47;;;0.35;;
14592;SDS011;7383;52.354;9.756;2022-12-29T08:09:49;0.57;;;0.43;;
14592;SDS011;7383;52.354;9.756;2022-12-29T08:12:16;0.40;;;0.40;;
14592;SDS011;7383;52.354;9.756;2022-12-29T08:14:42;0.57;;;0.40;;
14592;SDS011;7383;52.354;9.756;2022-12-29T08:17:09;0.80;;;0.40;;
14592;SDS011;7383;52.354;9.756;2022-12-29T08:19:36;0.43;;;0.43;;
14592;SDS011;7383;52.354;9.756;2022-12-29T08:22:02;0.40;;;0.40;;
14592;SDS011;7383;52.354;9.756;2022-12-29T08:24:28;0.60;;;0.57;;
14592;SDS011;7383;52.354;9.756;2022-12-29T08:26:56;0.80;;;0.80;;
14592;SDS011;7383;52.354;9.756;2022-12-29T08:29:23;0.80;;;0.80;;
14592;SDS011;7383;52.354;9.756;2022-12-29T08:31:49;0.65;;;0.65;;
14592;SDS011;7383;52.354;9.756;2022-12-29T08:34:15;1.38;;;0.88;;
14592;SDS011;7383;52.354;9.756;2022-12-29T08:36:42;1.20;;;0.80;;
14592;SDS011;7383;52.354;9.756;2022-12-29T08:39:08;1.20;;;0.63;;
14592;SDS011;7383;52.354;9.756;2022-12-29T08:41:37;1.27;;;0.80;;
14592;SDS011;7383;52.354;9.756;2022-12-29T08:44:05;1.30;;;0.80;;
14592;SDS011;7383;52.354;9.756;2022-12-29T08:46:31;0.93;;;0.75;;
14592;SDS011;7383;52.354;9.756;2022-12-29T08:48:58;1.05;;;0.52;;
14592;SDS011;7383;52.354;9.756;2022-12-29T08:51:24;1.23;;;0.80;;
14592;SDS011;7383;52.354;9.756;2022-12-29T08:53:51;0.73;;;0.70;;
14592;SDS011;7383;52.354;9.756;2022-12-29T08:56:18;1.48;;;0.65;;
14592;SDS011;7383;52.354;9.756;2022-12-29T08:58:44;1.10;;;0.90;;
14592;SDS011;7383;52.354;9.756;2022-12-29T09:01:12;2.20;;;0.93;;
14592;SDS011;7383;52.354;9.756;2022-12-29T09:03:39;1.05;;;0.75;;
14592;SDS011;7383;52.354;9.756;2022-12-29T09:06:05;0.70;;;0.70;;
14592;SDS011;7383;52.354;9.756;2022-12-29T09:08:32;0.88;;;0.88;;
14592;SDS011;7383;52.354;9.756;2022-12-29T09:11:05;1.55;;;0.90;;
14592;SDS011;7383;52.354;9.756;2022-12-29T09:13:32;1.75;;;1.25;;
14592;SDS011;7383;52.354;9.756;2022-12-29T09:15:59;1.30;;;1.20;;
14592;SDS011;7383;52.354;9.756;2022-12-29T09:18:27;0.90;;;0.90;;
14592;SDS011;7383;52.354;9.756;2022-12-29T09:20:55;1.02;;;0.90;;
14592;SDS011;7383;52.354;9.756;2022-12-29T09:23:22;0.70;;;0.70;;
14592;SDS011;7383;52.354;9.756;2022-12-29T09:25:49;1.00;;;0.95;;
14592;SDS011;7383;52.354;9.756;2022-12-29T09:28:15;1.10;;;0.85;;
14592;SDS011;7383;52.354;9.756;2022-12-29T09:30:41;1.20;;;0.75;;
14592;SDS011;7383;52.354;9.756;2022-12-29T09:33:08;1.73;;;1.10;;
14592;SDS011;7383;52.354;9.756;2022-12-29T09:35:36;1.23;;;1.13;;
14592;SDS011;7383;52.354;9.756;2022-12-29T09:38:02;1.55;;;0.95;;
14592;SDS011;7383;52.354;9.756;2022-12-29T09:40:29;0.95;;;0.90;;
14592;SDS011;7383;52.354;9.756;2022-12-29T09:45:55;0.80;;;0.77;;
14592;SDS011;7383;52.354;9.756;2022-12-29T09:48:30;0.80;;;0.65;;
14592;SDS011;7383;52.354;9.756;2022-12-29T09:51:03;0.63;;;0.60;;
14592;SDS011;7383;52.354;9.756;2022-12-29T09:53:35;0.82;;;0.50;;
14592;SDS011;7383;52.354;9.756;2022-12-29T09:56:04;0.60;;;0.60;;
14592;SDS011;7383;52.354;9.756;2022-12-29T09:58:38;1.17;;;0.90;;
14592;SDS011;7383;52.354;9.756;2022-12-29T10:01:12;1.23;;;0.80;;
14592;SDS011;7383;52.354;9.756;2022-12-29T10:03:51;0.82;;;0.80;;
14592;SDS011;7383;52.354;9.756;2022-12-29T10:06:22;0.75;;;0.70;;
14592;SDS011;7383;52.354;9.756;2022-12-29T10:08:53;0.80;;;0.80;;
14592;SDS011;7383;52.354;9.756;2022-12-29T10:11:29;0.93;;;0.88;;
14592;SDS011;7383;52.354;9.756;2022-12-29T10:14:12;1.13;;;0.98;;
14592;SDS011;7383;52.354;9.756;2022-12-29T10:16:54;0.90;;;0.90;;
14592;SDS011;7383;52.354;9.756;2022-12-29T10:19:32;1.10;;;0.90;;
14592;SDS011;7383;52.354;9.756;2022-12-29T10:22:18;0.70;;;0.70;;
14592;SDS011;7383;52.354;9.756;2022-12-29T10:24:58;0.88;;;0.88;;
14592;SDS011;7383;52.354;9.756;2022-12-29T10:27:29;1.13;;;0.80;;
14592;SDS011;7383;52.354;9.756;2022-12-29T10:29:57;0.80;;;0.80;;
14592;SDS011;7383;52.354;9.756;2022-12-29T10:32:28;0.95;;;0.88;;
14592;SDS011;7383;52.354;9.756;2022-12-29T10:35:00;0.70;;;0.70;;
14592;SDS011;7383;52.354;9.756;2022-12-29T10:37:34;1.05;;;0.80;;
14592;SDS011;7383;52.354;9.756;2022-12-29T10:40:14;1.02;;;0.93;;
14592;SDS011;7383;52.354;9.756;2022-12-29T10:42:46;0.80;;;0.80;;
14592;SDS011;7383;52.354;9.756;2022-12-29T10:45:16;1.50;;;1.40;;
14592;SDS011;7383;52.354;9.756;2022-12-29T10:47:47;1.30;;;1.20;;
14592;SDS011;7383;52.354;9.756;2022-12-29T10:50:19;1.30;;;1.13;;
14592;SDS011;7383;52.354;9.756;2022-12-29T10:52:47;1.23;;;1.02;;
14592;SDS011;7383;52.354;9.756;2022-12-29T10:55:15;0.80;;;0.80;;
14592;SDS011;7383;52.354;9.756;2022-12-29T10:57:45;1.02;;;0.90;;
14592;SDS011;7383;52.354;9.756;2022-12-29T11:00:14;1.73;;;1.02;;
14592;SDS011;7383;52.354;9.756;2022-12-29T11:02:52;1.35;;;1.05;;
14592;SDS011;7383;52.354;9.756;2022-12-29T11:05:39;1.73;;;1.48;;
14592;SDS011;7383;52.354;9.756;2022-12-29T11:08:13;1.17;;;1.10;;
14592;SDS011;7383;52.354;9.756;2022-12-29T11:10:43;1.77;;;1.20;;
14592;SDS011;7383;52.354;9.756;2022-12-29T11:13:12;1.60;;;1.40;;
14592;SDS011;7383;52.354;9.756;2022-12-29T11:15:39;1.83;;;1.38;;
14592;SDS011;7383;52.354;9.756;2022-12-29T11:18:16;1.33;;;1.23;;
14592;SDS011;7383;52.354;9.756;2022-12-29T11:20:45;1.35;;;1.08;;
14592;SDS011;7383;52.354;9.756;2022-12-29T11:23:23;1.15;;;1.00;;
14592;SDS011;7383;52.354;9.756;2022-12-29T11:26:05;1.00;;;0.95;;
14592;SDS011;7383;52.354;9.756;2022-12-29T11:28:34;2.03;;;1.52;;
14592;SDS011;7383;52.354;9.756;2022-12-29T11:31:01;2.50;;;1.45;;
14592;SDS011;7383;52.354;9.756;2022-12-29T11:33:29;1.20;;;1.10;;
14592;SDS011;7383;52.354;9.756;2022-12-29T11:35:57;2.10;;;1.35;;
14592;SDS011;7383;52.354;9.756;2022-12-29T11:38:28;0.77;;;0.73;;
14592;SDS011;7383;52.354;9.756;2022-12-29T11:41:00;1.35;;;0.95;;
14592;SDS011;7383;52.354;9.756;2022-12-29T11:43:29;1.95;;;1.23;;
14592;SDS011;7383;52.354;9.756;2022-12-29T11:45:59;1.63;;;1.00;;
14592;SDS011;7383;52.354;9.756;2022-12-29T11:48:29;1.73;;;0.95;;
14592;SDS011;7383;52.354;9.756;2022-12-29T11:50:58;1.00;;;0.85;;
14592;SDS011;7383;52.354;9.756;2022-12-29T11:53:26;1.13;;;0.88;;
14592;SDS011;7383;52.354;9.756;2022-12-29T11:56:14;1.55;;;0.70;;
14592;SDS011;7383;52.354;9.756;2022-12-29T11:58:56;1.45;;;0.70;;
14592;SDS011;7383;52.354;9.756;2022-12-29T12:01:56;1.02;;;0.70;;
14592;SDS011;7383;52.354;9.756;2022-12-29T12:04:24;1.05;;;0.93;;
14592;SDS011;7383;52.354;9.756;2022-12-29T12:06:57;1.40;;;0.88;;
14592;SDS011;7383;52.354;9.756;2022-12-29T12:09:31;1.85;;;1.00;;
14592;SDS011;7383;52.354;9.756;2022-12-29T12:12:01;1.45;;;1.00;;
14592;SDS011;7383;52.354;9.756;2022-12-29T12:14:31;2.45;;;1.10;;
14592;SDS011;7383;52.354;9.756;2022-12-29T12:17:04;2.20;;;1.05;;
14592;SDS011;7383;52.354;9.756;2022-12-29T12:19:38;1.55;;;0.98;;
14592;SDS011;7383;52.354;9.756;2022-12-29T12:22:08;1.65;;;0.98;;
14592;SDS011;7383;52.354;9.756;2022-12-29T12:24:41;2.13;;;1.20;;
14592;SDS011;7383;52.354;9.756;2022-12-29T12:27:14;1.48;;;1.20;;
14592;SDS011;7383;52.354;9.756;2022-12-29T12:29:46;0.80;;;0.80;;
14592;SDS011;7383;52.354;9.756;2022-12-29T12:32:20;1.95;;;1.00;;
14592;SDS011;7383;52.354;9.756;2022-12-29T12:34:53;1.55;;;0.85;;
14592;SDS011;7383;52.354;9.756;2022-12-29T12:40:30;3.92;;;1.25;;
14592;SDS011;7383;52.354;9.756;2022-12-29T12:46:06;2.00;;;1.17;;
14592;SDS011;7383;52.354;9.756;2022-12-29T12:48:56;1.60;;;1.08;;
14592;SDS011;7383;52.354;9.756;2022-12-29T12:51:43;1.13;;;0.95;;
14592;SDS011;7383;52.354;9.756;2022-12-29T12:54:30;1.83;;;1.17;;
14592;SDS011;7383;52.354;9.756;2022-12-29T12:57:11;1.42;;;1.02;;
14592;SDS011;7383;52.354;9.756;2022-12-29T12:59:47;1.85;;;0.93;;
14592;SDS011;7383;52.354;9.756;2022-12-29T13:02:34;1.10;;;0.90;;
14592;SDS011;7383;52.354;9.756;2022-12-29T13:05:19;1.88;;;1.02;;
14592;SDS011;7383;52.354;9.756;2022-12-29T13:07:53;2.05;;;1.00;;
14592;SDS011;7383;52.354;9.756;2022-12-29T13:10:32;2.15;;;1.00;;
14592;SDS011;7383;52.354;9.756;2022-12-29T13:13:22;1.70;;;1.00;;
14592;SDS011;7383;52.354;9.756;2022-12-29T13:16:01;1.30;;;1.08;;
14592;SDS011;7383;52.354;9.756;2022-12-29T13:18:32;1.17;;;1.00;;
14592;SDS011;7383;52.354;9.756;2022-12-29T13:21:10;1.50;;;1.20;;
14592;SDS011;7383;52.354;9.756;2022-12-29T13:23:55;1.05;;;0.93;;
14592;SDS011;7383;52.354;9.756;2022-12-29T13:26:28;1.33;;;1.00;;
14592;SDS011;7383;52.354;9.756;2022-12-29T13:29:03;1.67;;;0.93;;
14592;SDS011;7383;52.354;9.756;2022-12-29T13:31:37;1.65;;;1.02;;
14592;SDS011;7383;52.354;9.756;2022-12-29T13:34:13;1.00;;;0.90;;
14592;SDS011;7383;52.354;9.756;2022-12-29T13:36:47;2.03;;;0.95;;
14592;SDS011;7383;52.354;9.756;2022-12-29T13:39:19;2.53;;;0.93;;
14592;SDS011;7383;52.354;9.756;2022-12-29T13:41:52;1.25;;;0.90;;
14592;SDS011;7383;52.354;9.756;2022-12-29T13:44:21;1.88;;;1.20;;
14592;SDS011;7383;52.354;9.756;2022-12-29T13:46:51;2.20;;;1.05;;
14592;SDS011;7383;52.354;9.756;2022-12-29T13:49:21;1.10;;;0.98;;
14592;SDS011;7383;52.354;9.756;2022-12-29T13:51:49;1.83;;;0.82;;
14592;SDS011;7383;52.354;9.756;2022-12-29T13:54:23;1.13;;;0.75;;
14592;SDS011;7383;52.354;9.756;2022-12-29T13:56:56;1.90;;;1.15;;
14592;SDS011;7383;52.354;9.756;2022-12-29T13:59:36;1.90;;;0.85;;
14592;SDS011;7383;52.354;9.756;2022-12-29T14:02:11;1.88;;;1.00;;
14592;SDS011;7383;52.354;9.756;2022-12-29T14:04:55;1.40;;;1.00;;
14592;SDS011;7383;52.354;9.756;2022-12-29T14:07:22;1.45;;;1.08;;
14592;SDS011;7383;52.354;9.756;2022-12-29T14:09:50;2.22;;;1.10;;
14592;SDS011;7383;52.354;9.756;2022-12-29T14:12:29;1.35;;;1.08;;
14592;SDS011;7383;52.354;9.756;2022-12-29T14:15:03;2.80;;;1.27;;
14592;SDS011;7383;52.354;9.756;2022-12-29T14:17:33;1.48;;;1.00;;
14592;SDS011;7383;52.354;9.756;2022-12-29T14:19:59;1.52;;;1.30;;
14592;SDS011;7383;52.354;9.756;2022-12-29T14:22:26;2.10;;;1.30;;
14592;SDS011;7383;52.354;9.756;2022-12-29T14:24:53;1.45;;;1.30;;
14592;SDS011;7383;52.354;9.756;2022-12-29T14:33:13;3.00;;;1.00;;
14592;SDS011;7383;52.354;9.756;2022-12-29T14:35:41;2.05;;;1.42;;
14592;SDS011;7383;52.354;9.756;2022-12-29T14:38:18;2.38;;;1.10;;
14592;SDS011;7383;52.354;9.756;2022-12-29T14:40:47;2.03;;;1.45;;
14592;SDS011;7383;52.354;9.756;2022-12-29T14:43:18;2.05;;;1.42;;
14592;SDS011;7383;52.354;9.756;2022-12-29T14:45:54;1.90;;;1.13;;
14592;SDS011;7383;52.354;9.756;2022-12-29T14:48:32;2.75;;;1.35;;
14592;SDS011;7383;52.354;9.756;2022-12-29T14:51:01;1.73;;;1.20;;
14592;SDS011;7383;52.354;9.756;2022-12-29T14:53:42;1.45;;;1.17;;
14592;SDS011;7383;52.354;9.756;2022-12-29T14:56:11;1.10;;;0.95;;
14592;SDS011;7383;52.354;9.756;2022-12-29T14:58:42;2.15;;;1.00;;
14592;SDS011;7383;52.354;9.756;2022-12-29T15:01:15;1.73;;;1.52;;
14592;SDS011;7383;52.354;9.756;2022-12-29T15:03:47;2.22;;;1.15;;
14592;SDS011;7383;52.354;9.756;2022-12-29T15:06:16;1.25;;;1.00;;
14592;SDS011;7383;52.354;9.756;2022-12-29T15:08:46;1.67;;;1.15;;
14592;SDS011;7383;52.354;9.756;2022-12-29T15:11:17;1.95;;;1.35;;
14592;SDS011;7383;52.354;9.756;2022-12-29T15:13:45;2.13;;;1.27;;
14592;SDS011;7383;52.354;9.756;2022-12-29T15:16:24;1.52;;;0.88;;
14592;SDS011;7383;52.354;9.756;2022-12-29T15:18:53;2.95;;;1.20;;
14592;SDS011;7383;52.354;9.756;2022-12-29T15:21:21;1.67;;;1.10;;
14592;SDS011;7383;52.354;9.756;2022-12-29T15:23:54;2.08;;;1.27;;
14592;SDS011;7383;52.354;9.756;2022-12-29T15:26:21;1.50;;;1.20;;
14592;SDS011;7383;52.354;9.756;2022-12-29T15:28:50;1.83;;;1.30;;
14592;SDS011;7383;52.354;9.756;2022-12-29T15:31:18;2.40;;;1.30;;
14592;SDS011;7383;52.354;9.756;2022-12-29T15:33:47;1.92;;;1.20;;
14592;SDS011;7383;52.354;9.756;2022-12-29T15:36:17;1.58;;;1.30;;
14592;SDS011;7383;52.354;9.756;2022-12-29T15:38:46;1.58;;;1.20;;
14592;SDS011;7383;52.354;9.756;2022-12-29T15:41:25;1.33;;;1.23;;